createdAt,value
2023-05-21T00:02:21.559Z,14.00
2023-05-21T00:04:48.132Z,14.00
2023-05-21T00:07:14.791Z,14.00
2023-05-21T00:09:41.336Z,14.00
2023-05-21T00:12:08.890Z,14.00
2023-05-21T00:14:36.139Z,14.00
2023-05-21T00:17:02.872Z,13.90
2023-05-21T00:19:29.522Z,13.80
2023-05-21T00:21:56.879Z,13.80
2023-05-21T00:24:23.436Z,13.80
2023-05-21T00:26:50.024Z,13.80
2023-05-21T00:29:16.563Z,13.70
2023-05-21T00:31:43.184Z,13.70
2023-05-21T00:34:09.778Z,13.70
2023-05-21T00:36:36.311Z,13.70
2023-05-21T00:39:05.560Z,13.50
2023-05-21T00:41:34.560Z,13.40
2023-05-21T00:44:02.461Z,13.40
2023-05-21T00:46:29.242Z,13.20
2023-05-21T00:48:57.318Z,13.10
2023-05-21T00:51:24.164Z,13.10
2023-05-21T00:53:52.361Z,13.20
2023-05-21T00:56:22.120Z,13.20
2023-05-21T00:58:51.066Z,13.30
2023-05-21T01:01:18.633Z,13.30
2023-05-21T01:03:45.501Z,13.40
2023-05-21T01:06:13.412Z,13.40
2023-05-21T01:08:41.419Z,13.30
2023-05-21T01:11:10.141Z,13.40
2023-05-21T01:13:40.635Z,13.30
2023-05-21T01:16:08.540Z,13.30
2023-05-21T01:18:36.898Z,13.30
2023-05-21T01:21:04.484Z,13.30
2023-05-21T01:23:31.604Z,13.30
2023-05-21T01:25:58.181Z,13.30
2023-05-21T01:28:24.710Z,13.30
2023-05-21T01:30:51.666Z,13.20
2023-05-21T01:33:47.019Z,13.10
2023-05-21T01:36:33.935Z,13.10
2023-05-21T01:39:43.536Z,13.00
2023-05-21T01:42:13.826Z,13.00
2023-05-21T01:44:41.277Z,13.00
2023-05-21T01:47:08.381Z,13.00
2023-05-21T01:49:35.228Z,13.00
2023-05-21T01:52:01.952Z,13.00
2023-05-21T01:54:28.517Z,12.90
2023-05-21T01:56:55.279Z,12.90
2023-05-21T01:59:21.809Z,12.80
2023-05-21T02:01:48.463Z,12.90
2023-05-21T02:04:15.061Z,12.80
2023-05-21T02:06:41.623Z,12.70
2023-05-21T02:09:08.161Z,12.80
2023-05-21T02:11:34.862Z,12.90
2023-05-21T02:14:03.113Z,12.90
2023-05-21T02:16:29.700Z,12.80
2023-05-21T02:18:57.363Z,12.80
2023-05-21T02:21:24.063Z,12.80
2023-05-21T02:23:50.613Z,12.90
2023-05-21T02:26:17.154Z,13.00
2023-05-21T02:28:43.955Z,13.00
2023-05-21T02:31:10.897Z,13.00
2023-05-21T02:33:41.087Z,13.00
2023-05-21T02:36:12.447Z,13.00
2023-05-21T02:38:42.848Z,13.00
2023-05-21T02:41:10.921Z,13.00
2023-05-21T02:43:37.438Z,12.90
2023-05-21T02:46:06.090Z,12.80
2023-05-21T02:48:32.743Z,12.70
2023-05-21T02:50:59.348Z,12.80
2023-05-21T02:53:26.046Z,12.90
2023-05-21T02:55:52.592Z,13.00
2023-05-21T02:58:19.159Z,13.00
2023-05-21T03:00:45.683Z,13.00
2023-05-21T03:03:12.378Z,12.90
2023-05-21T03:05:39.006Z,12.90
2023-05-21T03:08:05.546Z,13.00
2023-05-21T03:10:32.086Z,12.90
2023-05-21T03:12:58.647Z,12.90
2023-05-21T03:15:25.650Z,12.90
2023-05-21T03:17:53.462Z,12.90
2023-05-21T03:20:20.000Z,12.80
2023-05-21T03:22:47.480Z,12.70
2023-05-21T03:25:14.358Z,12.80
2023-05-21T03:27:40.919Z,12.80
2023-05-21T03:30:08.804Z,12.80
2023-05-21T03:32:37.099Z,12.80
2023-05-21T03:35:04.558Z,12.70
2023-05-21T03:37:31.069Z,12.70
2023-05-21T03:39:57.746Z,12.70
2023-05-21T03:42:24.285Z,12.70
2023-05-21T03:44:50.839Z,12.70
2023-05-21T03:47:17.386Z,12.80
2023-05-21T03:49:43.924Z,12.90
2023-05-21T03:52:10.459Z,12.90
2023-05-21T03:54:37.008Z,13.00
2023-05-21T03:57:03.651Z,13.00
2023-05-21T03:59:30.223Z,13.10
2023-05-21T04:01:56.762Z,13.10
2023-05-21T04:04:23.304Z,13.00
2023-05-21T04:06:53.535Z,13.10
2023-05-21T04:09:20.187Z,13.00
2023-05-21T04:11:47.198Z,13.00
2023-05-21T04:14:13.945Z,13.00
2023-05-21T04:16:43.258Z,13.00
2023-05-21T04:19:09.916Z,12.90
2023-05-21T04:21:36.474Z,13.10
2023-05-21T04:24:03.148Z,13.10
2023-05-21T04:26:33.629Z,13.20
2023-05-21T04:29:03.042Z,13.30
2023-05-21T04:31:31.757Z,13.50
2023-05-21T04:33:58.782Z,13.50
2023-05-21T04:36:28.281Z,13.50
2023-05-21T04:38:55.153Z,13.60
2023-05-21T04:41:21.913Z,13.70
2023-05-21T04:43:48.509Z,13.90
2023-05-21T04:46:15.131Z,14.20
2023-05-21T04:48:41.739Z,14.50
2023-05-21T04:51:08.270Z,14.60
2023-05-21T04:53:35.222Z,14.90
2023-05-21T04:56:03.218Z,15.30
2023-05-21T04:58:32.160Z,15.50
2023-05-21T05:01:02.222Z,15.80
2023-05-21T05:03:29.472Z,15.90
2023-05-21T05:05:56.136Z,16.00
2023-05-21T05:08:22.705Z,16.10
2023-05-21T05:10:49.268Z,16.40
2023-05-21T05:13:15.800Z,16.50
2023-05-21T05:15:42.392Z,16.60
2023-05-21T05:18:09.042Z,16.50
2023-05-21T05:20:35.617Z,16.50
2023-05-21T05:23:02.147Z,16.60
2023-05-21T05:25:28.702Z,16.60
2023-05-21T05:27:55.271Z,16.60
2023-05-21T05:30:21.768Z,16.60
2023-05-21T05:32:48.331Z,16.50
2023-05-21T05:35:14.967Z,16.50
2023-05-21T05:37:41.545Z,16.40
2023-05-21T05:40:08.590Z,16.40
2023-05-21T05:42:35.150Z,16.50
2023-05-21T05:45:01.747Z,16.60
2023-05-21T05:47:28.315Z,16.50
2023-05-21T05:49:54.839Z,16.50
2023-05-21T05:52:21.407Z,16.50
2023-05-21T05:54:47.914Z,16.60
2023-05-21T05:57:14.461Z,16.70
2023-05-21T05:59:40.983Z,16.80
2023-05-21T06:02:07.653Z,16.90
2023-05-21T06:04:34.231Z,17.00
2023-05-21T06:07:00.862Z,17.30
2023-05-21T06:09:27.414Z,17.50
2023-05-21T06:11:54.035Z,17.90
2023-05-21T06:14:20.586Z,18.30
2023-05-21T06:16:47.163Z,18.40
2023-05-21T06:19:13.815Z,18.70
2023-05-21T06:21:40.335Z,18.90
2023-05-21T06:24:07.026Z,19.10
2023-05-21T06:26:33.809Z,19.30
2023-05-21T06:29:00.447Z,19.30
2023-05-21T06:31:27.224Z,19.60
2023-05-21T06:33:53.899Z,19.70
2023-05-21T06:36:20.867Z,19.80
2023-05-21T06:38:47.398Z,19.70
2023-05-21T06:41:13.952Z,19.60
2023-05-21T06:43:40.457Z,19.30
2023-05-21T06:46:07.092Z,19.30
2023-05-21T06:48:33.651Z,19.30
2023-05-21T06:51:00.183Z,19.40
2023-05-21T06:53:27.352Z,19.40
2023-05-21T06:55:54.019Z,19.50
2023-05-21T06:58:20.873Z,19.60
2023-05-21T07:00:47.845Z,20.10
2023-05-21T07:03:15.003Z,20.60
2023-05-21T07:05:41.732Z,21.00
2023-05-21T07:08:09.113Z,21.40
2023-05-21T07:10:37.201Z,21.30
2023-05-21T07:13:03.747Z,21.20
2023-05-21T07:15:30.330Z,21.10
2023-05-21T07:17:56.951Z,21.10
2023-05-21T07:20:23.597Z,21.20
2023-05-21T07:22:50.148Z,21.20
2023-05-21T07:25:16.712Z,21.20
2023-05-21T07:27:43.288Z,21.50
2023-05-21T07:30:10.776Z,21.80
2023-05-21T07:32:37.381Z,22.00
2023-05-21T07:35:04.451Z,22.20
2023-05-21T07:37:31.043Z,22.40
2023-05-21T07:39:58.094Z,22.30
2023-05-21T07:42:25.816Z,22.50
2023-05-21T07:44:52.403Z,22.50
2023-05-21T07:47:18.977Z,22.60
2023-05-21T07:49:45.525Z,22.80
2023-05-21T07:52:12.140Z,22.80
2023-05-21T07:54:38.668Z,22.90
2023-05-21T07:57:05.494Z,23.20
2023-05-21T07:59:32.878Z,23.40
2023-05-21T08:01:59.741Z,23.30
2023-05-21T08:04:26.564Z,23.40
2023-05-21T08:06:53.210Z,23.30
2023-05-21T08:09:19.732Z,23.20
2023-05-21T08:11:46.477Z,23.20
2023-05-21T08:14:12.999Z,23.30
2023-05-21T08:16:39.594Z,23.40
2023-05-21T08:19:06.207Z,23.50
2023-05-21T08:21:33.354Z,23.40
2023-05-21T08:23:59.904Z,23.20
2023-05-21T08:26:26.708Z,23.10
2023-05-21T08:28:53.224Z,23.20
2023-05-21T08:31:20.056Z,23.10
2023-05-21T08:33:53.803Z,23.20
2023-05-21T08:36:20.573Z,23.40
2023-05-21T08:38:47.147Z,23.80
2023-05-21T08:41:14.571Z,23.90
2023-05-21T08:43:43.050Z,23.90
2023-05-21T08:46:10.185Z,23.90
2023-05-21T08:48:38.308Z,24.00
2023-05-21T08:51:05.653Z,24.00
2023-05-21T08:53:33.941Z,24.00
2023-05-21T08:56:01.885Z,24.00
2023-05-21T08:58:31.511Z,24.20
2023-05-21T09:00:58.300Z,24.30
2023-05-21T09:03:26.004Z,24.40
2023-05-21T09:05:54.485Z,24.60
2023-05-21T09:08:45.383Z,24.60
2023-05-21T09:11:13.327Z,24.70
2023-05-21T09:13:42.912Z,24.80
2023-05-21T09:16:10.681Z,24.80
2023-05-21T09:18:37.255Z,24.90
2023-05-21T09:21:29.519Z,25.00
2023-05-21T09:23:58.239Z,24.80
2023-05-21T09:26:25.843Z,24.50
2023-05-21T09:28:58.652Z,24.50
2023-05-21T09:31:29.399Z,24.60
2023-05-21T09:33:56.003Z,24.90
2023-05-21T09:36:22.661Z,24.90
2023-05-21T09:38:53.927Z,24.90
2023-05-21T09:41:31.429Z,25.20
2023-05-21T09:44:04.219Z,25.40
2023-05-21T09:46:40.713Z,25.50
2023-05-21T09:49:21.329Z,25.40
2023-05-21T09:51:47.883Z,25.30
2023-05-21T09:54:14.389Z,25.30
2023-05-21T09:56:41.394Z,25.50
2023-05-21T09:59:08.177Z,25.50
2023-05-21T10:01:35.318Z,25.40
2023-05-21T10:04:07.176Z,25.50
2023-05-21T10:06:41.520Z,25.10
2023-05-21T10:09:10.930Z,25.00
2023-05-21T10:11:42.353Z,24.60
2023-05-21T10:14:31.437Z,24.30
2023-05-21T10:17:00.067Z,24.10
2023-05-21T10:19:29.759Z,24.00
2023-05-21T10:21:56.944Z,24.20
2023-05-21T10:24:24.545Z,24.50
2023-05-21T10:26:51.784Z,24.80
2023-05-21T10:29:20.544Z,25.10
2023-05-21T10:31:48.920Z,25.40
2023-05-21T10:34:15.929Z,25.10
2023-05-21T10:36:44.315Z,24.80
2023-05-21T10:39:13.981Z,24.50
2023-05-21T10:41:59.063Z,24.40
2023-05-21T10:48:34.882Z,24.40
2023-05-21T10:51:29.836Z,24.60
2023-05-21T10:59:26.157Z,25.40
2023-05-21T11:01:54.511Z,25.50
2023-05-21T11:04:27.175Z,25.50
2023-05-21T11:06:53.983Z,25.60
2023-05-21T11:09:20.534Z,25.60
2023-05-21T11:11:58.120Z,25.70
2023-05-21T11:14:42.350Z,25.90
2023-05-21T11:17:37.954Z,25.90
2023-05-21T11:20:16.492Z,26.10
2023-05-21T11:22:45.965Z,25.80
2023-05-21T11:25:12.832Z,25.40
2023-05-21T11:27:41.396Z,25.30
2023-05-21T11:30:14.200Z,25.30
2023-05-21T11:33:17.419Z,25.60
2023-05-21T11:36:17.206Z,25.90
2023-05-21T11:39:10.201Z,26.00
2023-05-21T11:41:56.570Z,26.10
2023-05-21T11:44:48.352Z,26.00
2023-05-21T11:47:18.507Z,26.00
2023-05-21T11:49:45.921Z,26.10
2023-05-21T11:52:13.962Z,26.20
2023-05-21T11:54:49.770Z,26.30
2023-05-21T11:57:20.719Z,26.30
2023-05-21T11:59:50.788Z,26.30
2023-05-21T12:02:21.539Z,26.30
2023-05-21T12:04:50.845Z,26.30
2023-05-21T12:07:21.275Z,26.40
2023-05-21T12:09:50.282Z,26.70
2023-05-21T12:12:22.133Z,26.40
2023-05-21T12:14:54.044Z,26.30
2023-05-21T12:17:23.053Z,26.50
2023-05-21T12:19:58.108Z,26.60
2023-05-21T12:22:27.225Z,26.80
2023-05-21T12:24:54.009Z,26.70
2023-05-21T12:27:21.975Z,26.50
2023-05-21T12:29:52.870Z,26.50
2023-05-21T12:32:21.232Z,26.30
2023-05-21T12:34:53.901Z,26.00
2023-05-21T12:37:25.921Z,25.90
2023-05-21T12:39:55.683Z,25.90
2023-05-21T12:42:40.573Z,25.70
2023-05-21T12:45:09.514Z,25.70
2023-05-21T12:47:36.222Z,25.80
2023-05-21T12:50:10.879Z,25.80
2023-05-21T12:52:40.570Z,25.90
2023-05-21T12:55:09.762Z,26.00
2023-05-21T12:57:40.233Z,26.00
2023-05-21T13:00:08.273Z,25.80
2023-05-21T13:02:41.956Z,25.70
2023-05-21T13:05:16.752Z,25.70
2023-05-21T13:07:45.902Z,25.80
2023-05-21T13:10:13.379Z,25.80
2023-05-21T13:12:41.183Z,25.90
2023-05-21T13:15:10.349Z,26.10
2023-05-21T13:17:37.042Z,26.00
2023-05-21T13:20:11.899Z,25.90
2023-05-21T13:22:52.241Z,25.90
2023-05-21T13:25:27.675Z,26.10
2023-05-21T13:27:54.537Z,26.00
2023-05-21T13:30:22.009Z,26.00
2023-05-21T13:32:48.874Z,25.90
2023-05-21T13:35:15.762Z,25.90
2023-05-21T13:37:42.349Z,25.80
2023-05-21T13:40:11.338Z,25.70
2023-05-21T13:42:38.486Z,25.50
2023-05-21T13:45:06.941Z,25.50
2023-05-21T13:47:34.633Z,25.50
2023-05-21T13:50:02.585Z,25.40
2023-05-21T13:52:29.187Z,25.50
2023-05-21T13:54:55.742Z,25.50
2023-05-21T13:57:22.456Z,25.40
2023-05-21T13:59:50.015Z,25.40
2023-05-21T14:02:16.681Z,25.50
2023-05-21T14:04:43.256Z,25.60
2023-05-21T14:07:11.356Z,25.70
2023-05-21T14:09:38.047Z,25.60
2023-05-21T14:12:06.629Z,25.30
2023-05-21T14:14:33.383Z,25.10
2023-05-21T14:17:00.212Z,25.10
2023-05-21T14:19:26.930Z,25.10
2023-05-21T14:21:53.532Z,25.20
2023-05-21T14:24:20.065Z,25.30
2023-05-21T14:26:46.637Z,25.30
2023-05-21T14:29:13.432Z,25.40
2023-05-21T14:31:40.051Z,25.50
2023-05-21T14:34:08.031Z,25.50
2023-05-21T14:36:35.570Z,25.50
2023-05-21T14:39:02.558Z,25.60
2023-05-21T14:41:29.243Z,25.70
2023-05-21T14:43:56.032Z,25.70
2023-05-21T14:46:22.714Z,25.50
2023-05-21T14:48:49.629Z,25.40
2023-05-21T14:51:16.184Z,25.40
2023-05-21T14:53:42.740Z,25.30
2023-05-21T14:56:09.338Z,25.30
2023-05-21T14:58:35.889Z,25.30
2023-05-21T15:01:03.509Z,25.40
2023-05-21T15:03:30.139Z,25.20
2023-05-21T15:05:57.767Z,25.10
2023-05-21T15:08:24.587Z,25.00
2023-05-21T15:10:51.123Z,25.10
2023-05-21T15:13:17.629Z,25.10
2023-05-21T15:15:44.236Z,25.10
2023-05-21T15:18:11.121Z,25.10
2023-05-21T15:20:37.720Z,25.10
2023-05-21T15:23:15.986Z,25.10
2023-05-21T15:25:43.775Z,25.10
2023-05-21T15:28:11.242Z,25.20
2023-05-21T15:30:37.810Z,25.10
2023-05-21T15:33:04.308Z,25.10
2023-05-21T15:35:31.005Z,25.10
2023-05-21T15:37:57.622Z,25.00
2023-05-21T15:40:26.764Z,25.10
2023-05-21T15:42:53.794Z,25.10
2023-05-21T15:45:20.573Z,25.20
2023-05-21T15:47:48.095Z,25.40
2023-05-21T15:50:14.880Z,25.40
2023-05-21T15:52:42.110Z,25.50
2023-05-21T15:55:09.259Z,25.40
2023-05-21T15:57:35.848Z,25.40
2023-05-21T16:00:03.110Z,25.40
2023-05-21T16:02:29.736Z,25.40
2023-05-21T16:04:56.332Z,25.40
2023-05-21T16:07:23.769Z,25.20
2023-05-21T16:09:50.338Z,25.00
2023-05-21T16:12:17.324Z,24.80
2023-05-21T16:14:43.894Z,24.70
2023-05-21T16:17:10.616Z,24.50
2023-05-21T16:19:37.441Z,24.40
2023-05-21T16:22:04.246Z,24.30
2023-05-21T16:24:30.784Z,24.10
2023-05-21T16:26:57.653Z,24.00
2023-05-21T16:29:24.191Z,23.80
2023-05-21T16:31:50.799Z,23.70
2023-05-21T16:34:17.395Z,23.60
2023-05-21T16:36:43.942Z,23.40
2023-05-21T16:39:10.476Z,23.40
2023-05-21T16:41:37.034Z,23.30
2023-05-21T16:44:03.591Z,23.10
2023-05-21T16:46:30.230Z,23.00
2023-05-21T16:48:56.849Z,23.00
2023-05-21T16:51:23.420Z,22.90
2023-05-21T16:53:49.952Z,22.70
2023-05-21T16:56:16.503Z,22.60
2023-05-21T16:58:43.048Z,22.50
2023-05-21T17:01:09.680Z,22.40
2023-05-21T17:03:36.400Z,22.30
2023-05-21T17:06:03.160Z,22.20
2023-05-21T17:08:29.730Z,22.10
2023-05-21T17:10:56.262Z,22.10
2023-05-21T17:13:23.379Z,22.00
2023-05-21T17:15:50.935Z,22.00
2023-05-21T17:18:17.745Z,21.90
2023-05-21T17:20:44.337Z,21.90
2023-05-21T17:23:11.167Z,21.80
2023-05-21T17:25:38.060Z,21.70
2023-05-21T17:28:05.046Z,21.60
2023-05-21T17:30:31.582Z,21.60
2023-05-21T17:32:58.182Z,21.50
2023-05-21T17:35:24.903Z,21.40
2023-05-21T17:37:52.742Z,21.40
2023-05-21T17:40:20.606Z,21.30
2023-05-21T17:42:47.815Z,21.30
2023-05-21T17:45:14.391Z,21.30
2023-05-21T17:47:40.999Z,21.10
2023-05-21T17:50:08.772Z,20.90
2023-05-21T17:52:35.290Z,20.80
2023-05-21T17:55:02.109Z,20.70
2023-05-21T17:57:28.444Z,20.70
2023-05-21T17:59:54.996Z,20.60
2023-05-21T18:02:22.732Z,20.50
2023-05-21T18:04:49.287Z,20.30
2023-05-21T18:07:15.876Z,20.20
2023-05-21T18:09:42.411Z,19.90
2023-05-21T18:12:09.073Z,19.80
2023-05-21T18:14:35.589Z,19.70
2023-05-21T18:17:02.277Z,19.70
2023-05-21T18:19:29.061Z,19.80
2023-05-21T18:21:56.662Z,19.80
2023-05-21T18:24:23.232Z,19.80
2023-05-21T18:26:49.744Z,19.90
2023-05-21T18:29:16.289Z,19.60
2023-05-21T18:31:46.036Z,19.20
2023-05-21T18:34:12.656Z,19.00
2023-05-21T18:36:39.360Z,18.90
2023-05-21T18:39:07.318Z,18.90
2023-05-21T18:41:34.098Z,18.80
2023-05-21T18:44:01.125Z,18.70
2023-05-21T18:46:28.521Z,18.70
2023-05-21T18:48:55.629Z,18.60
2023-05-21T18:51:22.337Z,18.40
2023-05-21T18:53:48.877Z,18.30
2023-05-21T18:56:16.239Z,18.20
2023-05-21T18:58:42.781Z,18.20
2023-05-21T19:01:09.764Z,18.20
2023-05-21T19:03:39.330Z,18.20
2023-05-21T19:06:05.881Z,18.20
2023-05-21T19:08:32.968Z,18.30
2023-05-21T19:10:59.679Z,18.20
2023-05-21T19:13:26.215Z,18.20
2023-05-21T19:15:52.830Z,18.10
2023-05-21T19:18:19.375Z,18.00
2023-05-21T19:20:45.936Z,17.80
2023-05-21T19:23:12.559Z,17.60
2023-05-21T19:25:39.108Z,17.50
2023-05-21T19:28:05.631Z,17.40
2023-05-21T19:30:34.074Z,17.40
2023-05-21T19:33:00.927Z,17.40
2023-05-21T19:35:27.484Z,17.50
2023-05-21T19:37:57.954Z,17.40
2023-05-21T19:40:24.838Z,17.30
2023-05-21T19:42:51.423Z,17.30
2023-05-21T19:45:20.434Z,17.40
2023-05-21T19:47:47.111Z,17.30
2023-05-21T19:50:13.634Z,17.30
2023-05-21T19:52:40.304Z,17.30
2023-05-21T19:55:09.405Z,17.30
2023-05-21T19:57:36.464Z,17.10
2023-05-21T20:00:04.601Z,17.10
2023-05-21T20:02:31.184Z,17.10
2023-05-21T20:04:58.299Z,17.00
2023-05-21T20:07:24.849Z,16.90
2023-05-21T20:09:51.690Z,16.90
2023-05-21T20:12:18.330Z,16.90
2023-05-21T20:14:46.762Z,16.90
2023-05-21T20:17:13.925Z,16.90
2023-05-21T20:19:40.500Z,16.80
2023-05-21T20:22:07.058Z,16.70
2023-05-21T20:24:33.720Z,16.70
2023-05-21T20:27:00.791Z,16.60
2023-05-21T20:29:27.993Z,16.60
2023-05-21T20:31:54.579Z,16.60
2023-05-21T20:34:21.096Z,16.60
2023-05-21T20:36:47.701Z,16.50
2023-05-21T20:39:14.864Z,16.30
2023-05-21T20:41:43.887Z,16.30
2023-05-21T20:44:10.456Z,16.20
2023-05-21T20:46:38.564Z,16.10
2023-05-21T20:49:05.474Z,16.10
2023-05-21T20:51:32.421Z,16.10
2023-05-21T20:53:59.055Z,15.90
2023-05-21T20:56:39.987Z,15.90
2023-05-21T20:59:10.471Z,15.80
2023-05-21T21:01:38.084Z,15.90
2023-05-21T21:04:05.158Z,15.80
2023-05-21T21:06:31.829Z,15.90
2023-05-21T21:08:58.546Z,15.80
2023-05-21T21:11:25.907Z,15.70
2023-05-21T21:13:52.682Z,15.80
2023-05-21T21:16:19.276Z,15.80
2023-05-21T21:18:46.271Z,15.70
2023-05-21T21:21:13.001Z,15.60
2023-05-21T21:23:39.539Z,15.50
2023-05-21T21:26:06.389Z,15.40
2023-05-21T21:28:32.943Z,15.60
2023-05-21T21:30:59.560Z,15.80
2023-05-21T21:33:26.100Z,15.60
2023-05-21T21:35:52.653Z,15.50
2023-05-21T21:38:19.225Z,15.50
2023-05-21T21:40:45.793Z,15.70
2023-05-21T21:43:12.319Z,15.70
2023-05-21T21:45:38.938Z,15.50
2023-05-21T21:48:06.174Z,15.40
2023-05-21T21:50:32.759Z,15.40
2023-05-21T21:53:00.388Z,15.50
2023-05-21T21:55:26.943Z,15.40
2023-05-21T21:57:53.483Z,15.50
2023-05-21T22:00:20.308Z,15.60
2023-05-21T22:02:46.888Z,15.60
2023-05-21T22:05:13.997Z,15.60
2023-05-21T22:07:45.707Z,15.50
2023-05-21T22:10:16.296Z,15.50
2023-05-21T22:12:44.116Z,15.40
2023-05-21T22:15:27.925Z,15.40
2023-05-21T22:17:54.896Z,15.40
2023-05-21T22:20:22.580Z,15.30
2023-05-21T22:22:49.571Z,15.10
2023-05-21T22:25:16.379Z,15.00
2023-05-21T22:27:43.462Z,15.00
2023-05-21T22:30:10.915Z,15.00
2023-05-21T22:32:37.857Z,14.90
2023-05-21T22:35:05.646Z,14.90
2023-05-21T22:37:32.227Z,14.90
2023-05-21T22:39:58.765Z,14.90
2023-05-21T22:42:25.317Z,15.00
2023-05-21T22:44:51.885Z,14.90
2023-05-21T22:47:22.224Z,14.80
2023-05-21T22:49:51.253Z,14.90
2023-05-21T22:52:20.866Z,15.00
2023-05-21T22:54:48.834Z,15.10
2023-05-21T22:57:15.736Z,15.20
2023-05-21T22:59:42.245Z,15.00
2023-05-21T23:02:09.185Z,14.90
2023-05-21T23:04:43.814Z,14.70
2023-05-21T23:07:11.724Z,14.70
2023-05-21T23:09:38.280Z,14.60
2023-05-21T23:12:05.550Z,14.70
2023-05-21T23:14:32.103Z,14.60
2023-05-21T23:17:01.056Z,14.50
2023-05-21T23:19:28.736Z,14.40
2023-05-21T23:21:55.539Z,14.40
2023-05-21T23:24:22.188Z,14.50
2023-05-21T23:26:48.772Z,14.70
2023-05-21T23:29:15.307Z,14.80
2023-05-21T23:31:41.930Z,14.80
2023-05-21T23:34:08.864Z,14.80
2023-05-21T23:36:35.486Z,14.70
2023-05-21T23:39:02.064Z,14.60
2023-05-21T23:41:31.280Z,14.50
2023-05-21T23:43:57.807Z,14.40
2023-05-21T23:46:24.432Z,14.40
2023-05-21T23:48:50.987Z,14.30
2023-05-21T23:51:18.545Z,14.30
2023-05-21T23:53:45.142Z,14.40
2023-05-21T23:56:11.703Z,14.50
2023-05-21T23:58:38.244Z,14.40
